North Delran, New Jersey
Current Conditions -  °F | °C
As of 10:54 AM on Tuesday 21 Oct 2014 (Local Time) from KPNE Reporting Station
Broken Clouds Broken Clouds  
Wind Chill: 61°   Ceiling: 9000
Heat Index: 61°   Visibility: 10mi
Dew Point: 49°   Wind: 0mph
Humidity: 64%   Direction: NA
Pressure: 29.89"   Gusts: NA
Location:  40.0192°N, 74.9489°W
Report Text: KPNE 211454Z 00000KT 10SM BKN090 16/09 A2989 RMK AO2 SLP120 T01610094 58003 $
Loading
Personal Weather Stations






























Interactive Weather Map
Tropical Storm Tracking
New forecast layout! Learn more

10-Day Weather Forecast

Advertisements
Track Severe Weather on mobile